Time;durP1;ratioP1;P1;durP2;ratioP2;P2;SDS_P1;SDS_P2;PMS_P1;PMS_P2;Temp;Humidity;BMP_temperature;BMP_pressure;BME280_temperature;BME280_humidity;BME280_pressure;Samples;Min_cycle;Max_cycle;Signal;HPM_P1;HPM_P2
2022/07/20 00:02:10;;;;;;;3.90;2.78;;;;;;;30.58;30.83;101275.31;5031260;28;20582;-68
2022/07/20 00:04:35;;;;;;;5.22;2.55;;;;;;;30.50;31.04;101278.22;5030833;28;20053;-68
2022/07/20 00:07:01;;;;;;;6.90;3.25;;;;;;;30.46;31.19;101274.50;5013586;28;20042;-69
2022/07/20 00:12:10;;;;;;;6.25;2.60;;;;;;;30.49;30.91;101282.13;5031061;28;20588;-69
2022/07/20 00:14:36;;;;;;;3.03;2.45;;;;;;;30.29;31.26;101275.56;5030825;28;20029;-70
2022/07/20 00:17:01;;;;;;;3.20;2.35;;;;;;;30.31;30.71;101264.91;5030627;28;20041;-68
2022/07/20 00:19:27;;;;;;;3.83;2.63;;;;;;;30.24;31.25;101275.75;5030387;28;20037;-68
2022/07/20 00:21:52;;;;;;;5.93;2.70;;;;;;;30.27;30.85;101269.50;5031203;28;20037;-68
2022/07/20 00:24:17;;;;;;;7.10;2.40;;;;;;;30.18;31.06;101275.19;5030438;28;20505;-68
2022/07/20 00:26:43;;;;;;;7.70;2.92;;;;;;;30.26;30.63;101270.69;5030643;28;20041;-67
2022/07/20 00:29:09;;;;;;;6.30;2.88;;;;;;;30.16;30.92;101266.41;5030611;28;20060;-66
2022/07/20 00:31:34;;;;;;;4.40;2.60;;;;;;;30.13;30.70;101263.53;5030460;28;20123;-68
2022/07/20 00:34:00;;;;;;;5.20;2.42;;;;;;;30.04;31.06;101260.03;5031009;28;20446;-69
2022/07/20 00:36:26;;;;;;;4.65;3.08;;;;;;;30.10;31.14;101262.25;5030025;28;20454;-68
2022/07/20 00:38:52;;;;;;;7.50;2.17;;;;;;;30.07;31.23;101257.38;5029998;28;20073;-68
2022/07/20 00:41:17;;;;;;;7.47;2.78;;;;;;;29.95;31.22;101260.16;5030647;28;20040;-67
2022/07/20 00:44:06;;;;;;;7.35;3.40;;;;;;;30.02;31.48;101268.72;5030399;28;20385;-67
2022/07/20 00:46:35;;;;;;;4.70;2.92;;;;;;;29.87;31.22;101263.84;5030458;28;20029;-69
2022/07/20 00:49:01;;;;;;;5.32;2.70;;;;;;;29.91;31.45;101263.97;5030618;28;20029;-67
2022/07/20 00:51:26;;;;;;;8.35;3.13;;;;;;;29.79;31.39;101269.47;5030203;28;20045;-69
2022/07/20 00:53:52;;;;;;;4.57;2.40;;;;;;;29.78;31.44;101260.34;5029711;28;20509;-66
2022/07/20 00:56:20;;;;;;;6.45;2.92;;;;;;;29.72;31.86;101260.94;5029951;28;20501;-70
2022/07/20 00:58:46;;;;;;;8.25;2.67;;;;;;;29.61;32.08;101263.28;5030383;28;20206;-69
2022/07/20 01:01:12;;;;;;;5.57;3.00;;;;;;;29.60;32.09;101261.69;5030404;28;20524;-67
2022/07/20 01:03:38;;;;;;;5.30;2.80;;;;;;;29.61;32.36;101266.06;5029765;28;20041;-66
2022/07/20 01:06:05;;;;;;;5.57;2.47;;;;;;;29.44;32.57;101267.03;5029782;28;20452;-66
2022/07/20 01:08:31;;;;;;;5.07;3.13;;;;;;;29.47;32.73;101268.31;5029515;28;20503;-66
2022/07/20 01:10:56;;;;;;;5.68;2.70;;;;;;;29.44;32.31;101261.50;5029659;28;20041;-68
2022/07/20 01:13:22;;;;;;;6.57;3.10;;;;;;;29.32;32.31;101260.66;5030120;28;20040;-68
2022/07/20 01:15:47;;;;;;;7.97;2.25;;;;;;;29.38;32.95;101260.13;5030152;28;20053;-67
2022/07/20 01:18:13;;;;;;;4.38;2.78;;;;;;;29.37;32.48;101252.13;5029921;28;20033;-65
2022/07/20 01:20:44;;;;;;;6.10;3.10;;;;;;;29.34;33.24;101261.13;5029547;28;20493;-68
2022/07/20 01:23:10;;;;;;;4.07;2.83;;;;;;;29.27;32.89;101260.88;5029400;28;20127;-69
2022/07/20 01:25:36;;;;;;;6.10;2.95;;;;;;;29.28;33.11;101254.19;5029193;28;20037;-68
2022/07/20 01:28:13;;;;;;;3.03;2.65;;;;;;;29.27;32.79;101252.56;5029924;28;20562;-68
2022/07/20 01:30:39;;;;;;;10.68;3.10;;;;;;;29.37;32.48;101249.38;5029539;28;20038;-68
2022/07/20 01:33:05;;;;;;;3.10;2.67;;;;;;;29.35;32.40;101246.13;5029594;28;20037;-67
2022/07/20 01:35:31;;;;;;;4.47;2.78;;;;;;;29.28;32.08;101255.00;5029369;28;20525;-69
2022/07/20 01:37:56;;;;;;;4.10;2.60;;;;;;;29.29;32.08;101256.63;5011571;28;20029;-68
2022/07/20 01:40:22;;;;;;;3.22;2.38;;;;;;;29.27;32.46;101255.31;5029409;28;20095;-68
2022/07/20 01:42:48;;;;;;;3.22;2.25;;;;;;;29.20;32.67;101250.38;5029769;28;20041;-68
2022/07/20 01:45:14;;;;;;;4.70;2.55;;;;;;;29.19;32.47;101251.50;5028775;28;20034;-68
2022/07/20 01:47:40;;;;;;;6.07;3.72;;;;;;;29.19;32.23;101256.22;5029001;28;20057;-69
2022/07/20 01:50:06;;;;;;;6.13;3.05;;;;;;;29.17;32.36;101253.78;5028636;28;20063;-69
2022/07/20 01:52:31;;;;;;;6.18;3.20;;;;;;;29.19;31.87;101245.13;5028614;28;20037;-68
2022/07/20 01:54:56;;;;;;;7.88;2.95;;;;;;;29.25;31.77;101241.84;5029179;28;20025;-67
2022/07/20 01:57:22;;;;;;;4.70;2.63;;;;;;;29.23;31.73;101246.09;5028668;28;20044;-67
2022/07/20 01:59:47;;;;;;;4.43;2.95;;;;;;;29.12;31.55;101245.69;5028825;28;20520;-68
2022/07/20 02:02:13;;;;;;;9.60;2.83;;;;;;;29.15;31.67;101250.56;5029216;28;20041;-68
2022/07/20 02:04:38;;;;;;;6.13;2.85;;;;;;;29.19;31.27;101251.50;5028518;28;20021;-66
2022/07/20 02:07:04;;;;;;;6.30;3.10;;;;;;;29.05;31.91;101248.16;5029066;28;20048;-69
2022/07/20 02:09:29;;;;;;;5.70;3.30;;;;;;;29.11;31.67;101246.81;5027608;28;20041;-69
2022/07/20 02:11:54;;;;;;;6.53;3.03;;;;;;;29.14;31.63;101256.44;5028451;28;20042;-68
2022/07/20 02:14:20;;;;;;;3.83;2.67;;;;;;;29.13;31.95;101252.03;5029015;28;20056;-69
2022/07/20 02:16:45;;;;;;;3.95;3.00;;;;;;;29.15;30.88;101255.31;5028668;28;20033;-68
2022/07/20 02:19:11;;;;;;;11.85;2.80;;;;;;;29.09;31.30;101242.78;5029088;28;20029;-69
2022/07/20 02:21:36;;;;;;;5.05;3.17;;;;;;;29.13;30.86;101249.25;5028255;28;20041;-67
2022/07/20 02:24:02;;;;;;;5.47;3.22;;;;;;;29.09;30.95;101253.84;5027994;28;20037;-67
2022/07/20 02:26:28;;;;;;;4.65;3.28;;;;;;;29.15;30.95;101250.56;5027875;28;20061;-67
2022/07/20 02:28:53;;;;;;;6.40;3.28;;;;;;;29.22;30.02;101245.28;5028218;28;20042;-68
2022/07/20 02:31:19;;;;;;;5.03;2.75;;;;;;;29.27;30.29;101245.06;5029071;28;20033;-68
2022/07/20 02:33:45;;;;;;;6.85;3.47;;;;;;;29.19;30.74;101240.41;5028224;28;20382;-68
2022/07/20 02:36:11;;;;;;;5.70;3.00;;;;;;;29.31;29.50;101245.19;5028069;28;20552;-67
2022/07/20 02:38:37;;;;;;;4.28;2.80;;;;;;;29.30;29.68;101252.72;5028284;28;20041;-67
2022/07/20 02:41:02;;;;;;;8.48;3.45;;;;;;;29.36;29.92;101243.03;5027831;28;20029;-68
2022/07/20 02:43:28;;;;;;;9.43;3.92;;;;;;;29.26;29.74;101237.13;5028313;28;20040;-67
2022/07/20 02:45:53;;;;;;;5.00;3.35;;;;;;;29.39;28.71;101245.13;5028251;28;20088;-68
2022/07/20 02:48:18;;;;;;;11.40;3.55;;;;;;;29.47;28.56;101235.91;5028442;28;20045;-67
2022/07/20 02:50:44;;;;;;;6.40;3.42;;;;;;;29.45;28.50;101234.63;5028074;28;20499;-68
2022/07/20 02:53:11;;;;;;;5.70;3.60;;;;;;;29.45;28.53;101237.41;5027869;28;20037;-69
2022/07/20 02:55:37;;;;;;;6.50;3.25;;;;;;;29.45;29.01;101240.97;5009552;28;20124;-67
2022/07/20 02:58:03;;;;;;;11.73;3.60;;;;;;;29.44;28.76;101236.56;5028396;28;20029;-68
2022/07/20 03:00:28;;;;;;;6.75;3.00;;;;;;;29.35;28.72;101235.88;5027756;28;20038;-67
2022/07/20 03:02:54;;;;;;;8.73;3.30;;;;;;;29.40;28.75;101229.31;5027674;28;20201;-68
2022/07/20 03:05:19;;;;;;;8.23;3.40;;;;;;;29.41;28.81;101228.97;5012516;28;20050;-69
2022/07/20 03:07:45;;;;;;;6.38;2.95;;;;;;;29.49;28.65;101225.28;5008041;28;20045;-68
2022/07/20 03:10:10;;;;;;;6.25;3.40;;;;;;;29.28;28.75;101221.78;5008251;28;20037;-70
2022/07/20 03:12:36;;;;;;;5.25;3.00;;;;;;;29.47;28.35;101226.78;5007886;28;20033;-69
2022/07/20 03:15:03;;;;;;;6.97;3.10;;;;;;;29.39;28.37;101230.44;5007887;28;20405;-68
2022/07/20 03:17:29;;;;;;;7.63;3.58;;;;;;;29.47;28.07;101227.59;5006440;28;20406;-68
2022/07/20 03:19:54;;;;;;;5.32;3.92;;;;;;;29.50;27.72;101232.44;5027297;28;20056;-67
2022/07/20 03:22:20;;;;;;;7.95;3.58;;;;;;;29.32;28.63;101222.72;5032636;28;20053;-68
2022/07/20 03:24:45;;;;;;;11.02;4.00;;;;;;;29.32;28.43;101230.22;5031360;28;20521;-68
2022/07/20 03:27:11;;;;;;;6.88;3.55;;;;;;;29.16;28.49;101227.28;5031632;28;20065;-69
2022/07/20 03:29:36;;;;;;;9.15;3.90;;;;;;;29.26;28.20;101226.84;5031492;28;20037;-68
2022/07/20 03:32:02;;;;;;;6.20;4.45;;;;;;;29.35;28.25;101226.75;5030948;28;20124;-67
2022/07/20 03:34:28;;;;;;;6.35;3.75;;;;;;;29.28;28.43;101230.09;5031115;28;20025;-69
2022/07/20 03:36:53;;;;;;;5.93;3.63;;;;;;;29.15;28.36;101235.94;5031439;28;20032;-68
2022/07/20 03:39:18;;;;;;;8.00;3.92;;;;;;;29.21;28.73;101240.88;5031270;28;20064;-67
2022/07/20 03:41:44;;;;;;;4.10;3.20;;;;;;;29.25;27.97;101236.28;5002266;28;20035;-67
2022/07/20 03:44:10;;;;;;;9.25;4.05;;;;;;;29.31;28.01;101237.69;4991702;28;20039;-68
2022/07/20 03:46:35;;;;;;;8.45;3.65;;;;;;;29.38;27.91;101237.16;4991627;28;20034;-68
2022/07/20 03:49:01;;;;;;;7.82;3.35;;;;;;;29.36;27.83;101243.03;5001388;28;20029;-69
2022/07/20 03:51:27;;;;;;;5.75;3.40;;;;;;;29.44;28.11;101241.31;5030959;28;20040;-68
2022/07/20 03:53:52;;;;;;;6.13;3.22;;;;;;;29.42;28.09;101251.94;5031061;28;20509;-68
2022/07/20 03:56:17;;;;;;;10.18;3.22;;;;;;;29.50;27.75;101251.81;5030990;28;20188;-69
2022/07/20 03:58:43;;;;;;;4.78;3.03;;;;;;;29.48;27.92;101258.88;5030740;28;20056;-67
2022/07/20 04:01:08;;;;;;;8.23;3.72;;;;;;;29.43;27.82;101256.31;5024282;28;20049;-68
2022/07/20 04:03:34;;;;;;;5.22;3.05;;;;;;;29.30;28.41;101246.34;5004973;28;20111;-67
2022/07/20 04:06:00;;;;;;;7.25;3.50;;;;;;;29.43;28.17;101253.53;5002711;28;20049;-68
2022/07/20 04:08:26;;;;;;;5.78;3.50;;;;;;;29.40;28.20;101268.09;5002369;28;20053;-68
2022/07/20 04:10:51;;;;;;;8.00;3.33;;;;;;;29.42;28.34;101268.56;5010745;28;20045;-66
2022/07/20 04:13:17;;;;;;;5.50;3.83;;;;;;;29.28;28.31;101259.72;5011793;28;20033;-68
2022/07/20 04:15:42;;;;;;;5.30;3.45;;;;;;;29.10;28.54;101278.44;5014558;28;20026;-68
2022/07/20 04:18:07;;;;;;;7.97;3.70;;;;;;;29.23;28.23;101282.06;5011431;28;20398;-67
2022/07/20 04:20:33;;;;;;;7.47;3.72;;;;;;;29.20;28.96;101289.13;5010822;28;20038;-68
2022/07/20 04:22:58;;;;;;;6.55;3.55;;;;;;;29.19;28.90;101287.47;5018783;28;20509;-68
2022/07/20 04:25:24;;;;;;;6.35;3.28;;;;;;;29.12;29.18;101298.28;5030763;28;20124;-67
2022/07/20 04:27:50;;;;;;;4.28;3.28;;;;;;;29.27;28.82;101305.97;5030622;28;20038;-68
2022/07/20 04:30:16;;;;;;;7.22;3.65;;;;;;;29.21;29.55;101304.56;5030380;28;20539;-70
2022/07/20 04:32:42;;;;;;;6.30;3.70;;;;;;;29.04;30.14;101313.00;5029871;28;20481;-67
2022/07/20 04:35:08;;;;;;;7.45;3.88;;;;;;;29.11;29.38;101318.00;5030375;28;20037;-67
2022/07/20 04:37:35;;;;;;;8.20;3.90;;;;;;;29.01;30.01;101321.16;5030071;28;20319;-67
2022/07/20 04:40:06;;;;;;;5.07;3.60;;;;;;;29.08;29.95;101318.66;5030834;28;20096;-68
2022/07/20 04:42:31;;;;;;;7.22;3.60;;;;;;;28.96;30.56;101322.16;5029840;28;20071;-68
2022/07/20 04:44:57;;;;;;;6.70;3.17;;;;;;;28.92;30.96;101324.00;5030266;28;20625;-67
2022/07/20 04:47:22;;;;;;;8.10;4.20;;;;;;;28.92;31.02;101329.53;5030054;28;20409;-68
2022/07/20 04:49:48;;;;;;;8.82;3.90;;;;;;;28.91;30.78;101332.63;5030308;28;20048;-67
2022/07/20 04:52:14;;;;;;;6.53;3.65;;;;;;;28.90;31.51;101340.13;5030231;28;20037;-68
2022/07/20 04:54:41;;;;;;;5.55;4.00;;;;;;;28.83;31.74;101336.25;5030126;28;20040;-69
2022/07/20 04:57:06;;;;;;;6.18;4.18;;;;;;;28.91;32.08;101336.22;5029765;28;20124;-66
2022/07/20 04:59:32;;;;;;;5.60;4.07;;;;;;;28.76;31.95;101338.72;5029976;28;20034;-67
2022/07/20 05:01:57;;;;;;;7.68;4.30;;;;;;;28.85;31.45;101337.56;5030054;28;20037;-68
2022/07/20 05:04:23;;;;;;;4.93;4.28;;;;;;;28.92;31.43;101342.53;5030300;28;20033;-67
2022/07/20 05:06:48;;;;;;;7.85;4.65;;;;;;;29.00;31.18;101328.66;5029991;28;20111;-68
2022/07/20 05:09:13;;;;;;;5.97;4.57;;;;;;;29.07;30.27;101331.69;5029991;28;20037;-67
2022/07/20 05:11:39;;;;;;;9.55;4.40;;;;;;;29.15;30.29;101343.91;5029847;28;20347;-68
2022/07/20 05:14:05;;;;;;;8.43;4.85;;;;;;;29.19;30.88;101344.81;5029643;28;20038;-67
2022/07/20 05:16:30;;;;;;;5.72;3.78;;;;;;;29.10;31.04;101355.94;5029583;28;20371;-67
2022/07/20 05:18:56;;;;;;;6.75;4.10;;;;;;;29.09;31.24;101356.28;5030180;28;20025;-68
2022/07/20 05:21:21;;;;;;;9.40;4.50;;;;;;;29.14;30.37;101369.94;5011718;28;20401;-65
2022/07/20 05:23:47;;;;;;;12.90;5.07;;;;;;;29.15;30.19;101377.13;5011794;28;20382;-66
2022/07/20 05:26:13;;;;;;;6.40;4.57;;;;;;;29.24;30.09;101377.84;5029279;28;20481;-67
2022/07/20 05:28:43;;;;;;;7.13;4.57;;;;;;;29.13;31.00;101376.59;5029437;28;20036;-67
2022/07/20 05:31:09;;;;;;;7.93;4.85;;;;;;;29.29;30.58;101372.91;5029648;28;20127;-68
2022/07/20 05:33:38;;;;;;;10.93;5.07;;;;;;;29.31;30.36;101367.03;5028766;28;20037;-68
2022/07/20 05:36:03;;;;;;;9.88;4.78;;;;;;;29.29;31.04;101381.22;5029069;28;20124;-67
2022/07/20 05:38:29;;;;;;;7.72;4.75;;;;;;;29.27;30.58;101391.00;5029045;28;20556;-68
2022/07/20 05:40:55;;;;;;;6.43;4.93;;;;;;;29.28;31.14;101382.38;5011280;28;20132;-68
2022/07/20 05:43:21;;;;;;;9.45;4.53;;;;;;;29.15;31.70;101388.97;5011171;28;20028;-68
2022/07/20 05:45:46;;;;;;;8.90;4.28;;;;;;;29.44;31.69;101385.34;5029359;28;20041;-67
2022/07/20 05:48:12;;;;;;;6.85;4.60;;;;;;;29.49;31.39;101391.50;5029215;28;20029;-67
2022/07/20 05:50:39;;;;;;;19.98;4.72;;;;;;;29.54;31.91;101396.03;5028607;28;20042;-69
2022/07/20 05:53:05;;;;;;;8.93;5.45;;;;;;;29.70;31.93;101391.44;5028690;28;20303;-68
2022/07/20 05:55:31;;;;;;;9.25;5.05;;;;;;;29.53;32.36;101397.16;5028645;28;20112;-68
2022/07/20 05:57:56;;;;;;;14.13;5.50;;;;;;;29.81;31.94;101395.47;5029073;28;20029;-68
2022/07/20 06:00:22;;;;;;;11.93;5.38;;;;;;;29.89;32.56;101388.22;5026492;28;20628;-67
2022/07/20 06:02:47;;;;;;;12.82;5.32;;;;;;;29.85;32.74;101398.38;5028235;28;20026;-67
2022/07/20 06:05:13;;;;;;;12.50;5.50;;;;;;;30.04;32.49;101395.88;5027885;28;20033;-68
2022/07/20 06:07:38;;;;;;;11.02;6.28;;;;;;;29.87;33.49;101399.66;5027612;28;20063;-68
2022/07/20 06:10:04;;;;;;;14.85;6.88;;;;;;;30.18;32.85;101397.19;5026085;28;20048;-68
2022/07/20 06:12:30;;;;;;;11.10;6.60;;;;;;;30.10;33.27;101395.31;5026064;28;20107;-69
2022/07/20 06:14:55;;;;;;;20.73;7.95;;;;;;;29.98;34.52;101392.53;5027822;28;20481;-68
2022/07/20 06:17:20;;;;;;;14.52;7.05;;;;;;;30.21;34.55;101398.47;5028237;28;20088;-68
2022/07/20 06:19:46;;;;;;;15.50;8.77;;;;;;;30.10;35.08;101411.16;5028629;28;20038;-68
2022/07/20 06:22:11;;;;;;;15.05;8.52;;;;;;;30.35;34.75;101412.06;5028627;28;20042;-68
2022/07/20 06:24:37;;;;;;;15.68;8.85;;;;;;;30.51;34.64;101413.81;5027802;28;20037;-68
2022/07/20 06:27:02;;;;;;;14.77;9.77;;;;;;;30.75;34.51;101413.00;5028462;28;20503;-67
2022/07/20 06:29:28;;;;;;;27.17;10.35;;;;;;;30.60;35.53;101417.28;5028069;28;20041;-68
2022/07/20 06:31:53;;;;;;;25.85;11.88;;;;;;;30.70;36.07;101422.34;5027836;28;20029;-67
2022/07/20 06:34:18;;;;;;;21.33;11.40;;;;;;;30.66;36.49;101426.19;5028891;28;20037;-67
2022/07/20 06:36:46;;;;;;;26.50;12.85;;;;;;;30.29;38.12;101417.00;5027958;28;20531;-68
2022/07/20 06:39:12;;;;;;;20.33;12.35;;;;;;;30.76;37.29;101423.75;5028155;28;20068;-68
2022/07/20 06:41:37;;;;;;;29.52;14.20;;;;;;;30.49;37.78;101416.09;5027159;28;20091;-70
2022/07/20 06:44:03;;;;;;;20.48;13.25;;;;;;;30.75;37.60;101424.09;5028813;28;20029;-68
2022/07/20 06:46:28;;;;;;;24.27;15.07;;;;;;;30.78;37.51;101423.44;5008250;28;20041;-69
2022/07/20 06:48:53;;;;;;;29.42;14.82;;;;;;;30.44;38.61;101434.94;5023622;28;20033;-67
2022/07/20 06:51:19;;;;;;;26.95;14.88;;;;;;;31.02;37.90;101445.63;5026913;28;20564;-69
2022/07/20 06:53:44;;;;;;;25.23;15.45;;;;;;;30.60;39.29;101452.56;5023763;28;20096;-69
2022/07/20 06:56:10;;;;;;;27.08;15.00;;;;;;;30.42;39.92;101453.91;5024734;28;20096;-70
2022/07/20 06:58:35;;;;;;;31.42;17.40;;;;;;;29.97;41.12;101462.16;5024311;28;20037;-70
2022/07/20 07:01:02;;;;;;;32.60;16.42;;;;;;;30.99;39.14;101476.91;5026320;28;20477;-69
2022/07/20 07:03:27;;;;;;;34.10;17.08;;;;;;;30.59;40.81;101479.47;5025888;28;20109;-69
2022/07/20 07:05:52;;;;;;;32.95;18.63;;;;;;;30.55;41.07;101481.31;5023271;28;20045;-69
2022/07/20 07:08:18;;;;;;;31.58;17.30;;;;;;;30.60;40.72;101488.63;5011824;28;20233;-68
2022/07/20 07:10:43;;;;;;;37.53;17.85;;;;;;;30.67;40.46;101486.06;5029067;28;20026;-68
2022/07/20 07:13:09;;;;;;;31.38;17.95;;;;;;;30.41;41.12;101493.91;5027544;28;20022;-68
2022/07/20 07:15:34;;;;;;;31.05;16.65;;;;;;;30.65;41.07;101497.53;5027158;28;20147;-69
2022/07/20 07:17:59;;;;;;;28.17;17.92;;;;;;;30.70;40.93;101502.06;5027132;28;20478;-71
2022/07/20 07:20:25;;;;;;;31.42;16.65;;;;;;;31.07;40.49;101509.28;5027055;28;20030;-68
2022/07/20 07:22:50;;;;;;;38.65;18.67;;;;;;;31.16;40.14;101518.31;5027134;28;20115;-71
2022/07/20 07:25:16;;;;;;;40.70;17.42;;;;;;;30.70;41.04;101527.81;5027936;28;20033;-69
2022/07/20 07:27:41;;;;;;;33.83;19.50;;;;;;;30.94;40.56;101530.69;5028507;28;20034;-69
2022/07/20 07:30:07;;;;;;;33.95;18.92;;;;;;;30.81;40.67;101533.75;5027576;28;20045;-72
2022/07/20 07:32:32;;;;;;;38.50;18.85;;;;;;;30.73;40.74;101543.00;5028890;28;20460;-70
2022/07/20 07:34:58;;;;;;;29.20;18.15;;;;;;;30.91;40.43;101541.66;5027805;28;20042;-69
2022/07/20 07:37:23;;;;;;;31.92;18.17;;;;;;;31.31;39.74;101553.75;5034390;28;20033;-69
2022/07/20 07:39:49;;;;;;;30.73;19.23;;;;;;;31.11;40.53;101540.78;5029344;28;20030;-69
2022/07/20 07:42:14;;;;;;;34.65;19.90;;;;;;;31.14;39.79;101549.22;5025415;28;20041;-69
2022/07/20 07:44:40;;;;;;;29.23;19.45;;;;;;;31.01;40.20;101558.69;5024974;28;20038;-71
2022/07/20 07:47:05;;;;;;;29.90;19.77;;;;;;;30.63;40.32;101557.28;5024777;28;20041;-70
2022/07/20 07:49:31;;;;;;;34.67;18.73;;;;;;;31.31;39.66;101550.16;5026456;28;20053;-69
2022/07/20 07:51:57;;;;;;;34.83;20.58;;;;;;;32.08;37.91;101552.59;5024202;28;20037;-69
2022/07/20 07:54:23;;;;;;;33.72;20.48;;;;;;;31.56;38.59;101560.94;5021916;28;20059;-68
2022/07/20 07:56:49;;;;;;;33.97;19.73;;;;;;;31.06;40.36;101566.78;5026029;28;20040;-69
2022/07/20 07:59:14;;;;;;;29.40;19.98;;;;;;;31.51;39.22;101560.38;5025040;28;20041;-69
2022/07/20 08:01:39;;;;;;;34.15;21.38;;;;;;;31.83;39.25;101565.75;5026743;28;20025;-68
2022/07/20 08:04:05;;;;;;;32.80;20.83;;;;;;;31.89;38.41;101575.47;5027003;28;20042;-69
2022/07/20 08:06:30;;;;;;;31.92;21.02;;;;;;;31.61;39.02;101577.34;5028137;28;20045;-68
2022/07/20 08:08:57;;;;;;;43.50;21.77;;;;;;;31.66;39.07;101581.88;5030192;28;20449;-69
2022/07/20 08:11:22;;;;;;;39.30;20.95;;;;;;;32.00;38.78;101592.50;5029902;28;20029;-68
2022/07/20 08:13:48;;;;;;;35.25;20.83;;;;;;;31.52;39.12;101600.88;5031229;28;20045;-68
2022/07/20 08:16:13;;;;;;;31.88;19.73;;;;;;;31.32;39.77;101608.13;5032517;28;20542;-69
2022/07/20 08:18:39;;;;;;;37.45;21.13;;;;;;;31.35;39.04;101601.09;5029559;28;20041;-69
2022/07/20 08:21:04;;;;;;;32.47;20.85;;;;;;;31.50;38.34;101620.69;5024616;28;20572;-67
2022/07/20 08:23:30;;;;;;;32.55;21.45;;;;;;;31.59;38.85;101624.16;5027823;28;20042;-69
2022/07/20 08:25:55;;;;;;;36.92;21.08;;;;;;;31.70;37.14;101625.31;5029611;28;20038;-69
2022/07/20 08:28:21;;;;;;;31.90;20.27;;;;;;;31.08;38.12;101630.31;5011761;28;20121;-69
2022/07/20 08:30:49;;;;;;;34.67;20.15;;;;;;;31.29;38.09;101639.41;4997010;28;20109;-69
2022/07/20 08:33:15;;;;;;;33.92;19.38;;;;;;;31.80;36.29;101644.28;5029553;28;20038;-69
2022/07/20 08:35:41;;;;;;;40.30;20.30;;;;;;;31.68;36.95;101638.75;5028983;28;20732;-69
2022/07/20 08:38:07;;;;;;;30.00;19.92;;;;;;;31.43;36.52;101650.22;5029127;28;20033;-69
2022/07/20 08:40:33;;;;;;;27.45;17.98;;;;;;;31.60;36.15;101650.78;5029052;28;20021;-68
2022/07/20 08:42:59;;;;;;;29.08;17.80;;;;;;;31.56;35.77;101657.38;5029567;28;20025;-69
2022/07/20 08:45:25;;;;;;;33.25;16.60;;;;;;;31.18;36.73;101661.25;5010351;28;20221;-68
2022/07/20 08:47:51;;;;;;;22.70;14.80;;;;;;;32.22;35.46;101664.31;5041999;28;20041;-69
2022/07/20 08:50:29;;;;;;;28.40;16.38;;;;;;;32.07;34.19;101670.59;5027336;28;20071;-70
2022/07/20 08:52:56;;;;;;;20.80;13.77;;;;;;;32.02;33.78;101672.81;5029045;28;20045;-69
2022/07/20 08:55:22;;;;;;;26.95;14.55;;;;;;;31.64;34.58;101670.38;5025311;28;20030;-69
2022/07/20 08:57:48;;;;;;;27.88;13.90;;;;;;;31.79;34.34;101672.44;5029113;28;20029;-69
2022/07/20 09:00:15;;;;;;;27.80;14.23;;;;;;;32.53;33.47;101672.81;5027400;28;20087;-69
2022/07/20 09:02:57;;;;;;;27.13;15.80;;;;;;;32.12;33.53;101684.25;5042412;28;20187;-68
2022/07/20 09:05:25;;;;;;;24.95;15.10;;;;;;;32.49;33.56;101685.03;5028168;28;20112;-68
2022/07/20 09:07:53;;;;;;;22.42;13.02;;;;;;;32.02;34.43;101693.06;5029176;28;20137;-69
2022/07/20 09:10:22;;;;;;;25.75;13.40;;;;;;;32.47;32.76;101688.16;5045890;28;20155;-70
2022/07/20 09:12:58;;;;;;;19.20;11.95;;;;;;;31.71;34.42;101676.97;5049113;28;20041;-68
2022/07/20 09:15:38;;;;;;;18.30;11.35;;;;;;;33.24;32.36;101661.72;5048959;28;20473;-70
2022/07/20 09:18:14;;;;;;;27.70;11.55;;;;;;;33.23;31.98;101660.09;5047343;28;20048;-70
2022/07/20 09:21:03;;;;;;;22.33;12.95;;;;;;;33.16;31.99;101673.84;5030095;28;20049;-70
2022/07/20 09:23:33;;;;;;;16.48;10.60;;;;;;;32.71;31.51;101667.75;5026606;28;20061;-67
2022/07/20 09:26:07;;;;;;;22.60;11.25;;;;;;;32.41;32.54;101678.38;5027693;28;20048;-69
2022/07/20 09:28:35;;;;;;;16.70;10.13;;;;;;;32.41;31.93;101675.59;5026118;28;20469;-70
2022/07/20 09:31:02;;;;;;;24.58;10.77;;;;;;;32.56;32.44;101669.34;5028972;28;20036;-69
2022/07/20 09:33:31;;;;;;;17.13;10.77;;;;;;;32.64;32.13;101673.16;5039568;28;20044;-69
2022/07/20 09:36:01;;;;;;;17.63;10.65;;;;;;;33.11;31.57;101674.09;5028488;28;20124;-68
2022/07/20 09:38:39;;;;;;;20.38;10.85;;;;;;;32.14;32.20;101690.28;5028398;28;20037;-70
2022/07/20 09:41:21;;;;;;;16.65;11.13;;;;;;;32.82;32.22;101683.63;5028675;28;20521;-69
2022/07/20 09:43:46;;;;;;;19.13;10.60;;;;;;;33.67;31.25;101688.75;5010751;28;20438;-68
2022/07/20 09:46:13;;;;;;;20.75;10.75;;;;;;;34.17;30.83;101679.59;5027916;28;20105;-70
2022/07/20 09:48:43;;;;;;;20.92;10.43;;;;;;;33.76;30.65;101689.34;5025822;28;20033;-69
2022/07/20 09:51:17;;;;;;;16.08;10.48;;;;;;;33.97;30.57;101684.28;5027291;28;20057;-70
2022/07/20 09:53:43;;;;;;;23.48;9.68;;;;;;;33.69;30.97;101676.03;5031652;28;20036;-69
2022/07/20 09:56:09;;;;;;;51.55;11.38;;;;;;;33.38;31.56;101672.41;5048086;28;20052;-69
2022/07/20 09:58:36;;;;;;;23.83;10.43;;;;;;;34.03;30.22;101679.25;5045671;28;20032;-68
2022/07/20 10:01:02;;;;;;;18.00;9.55;;;;;;;34.11;30.17;101678.25;5036613;28;20029;-70
2022/07/20 10:03:29;;;;;;;17.55;9.98;;;;;;;33.81;30.49;101680.69;5047408;28;20060;-69
2022/07/20 10:05:55;;;;;;;17.17;9.75;;;;;;;33.79;30.34;101671.88;5027693;28;20034;-68
2022/07/20 10:08:21;;;;;;;15.30;9.02;;;;;;;33.72;31.00;101677.31;5028201;28;20193;-69
2022/07/20 10:10:46;;;;;;;18.20;9.98;;;;;;;34.48;30.27;101669.16;5028459;28;20066;-70
2022/07/20 10:13:12;;;;;;;17.20;9.48;;;;;;;34.90;29.78;101660.00;5028335;28;20338;-69
2022/07/20 10:15:48;;;;;;;19.40;10.43;;;;;;;35.36;29.24;101668.06;5027419;28;20033;-68
2022/07/20 10:18:14;;;;;;;16.75;9.35;;;;;;;34.66;30.62;101661.13;5027677;28;20037;-69
2022/07/20 10:20:40;;;;;;;26.27;9.52;;;;;;;34.18;29.98;101665.25;5027291;28;20088;-70
2022/07/20 10:23:15;;;;;;;15.75;8.50;;;;;;;34.53;29.09;101684.00;5027794;28;20041;-69
2022/07/20 10:25:49;;;;;;;17.08;8.85;;;;;;;34.58;29.68;101681.72;5027704;28;20148;-69
2022/07/20 10:28:33;;;;;;;15.55;9.00;;;;;;;34.95;29.84;101676.50;5027977;28;20045;-70
2022/07/20 10:31:06;;;;;;;19.48;9.27;;;;;;;34.71;29.34;101686.00;5025647;28;20115;-70
2022/07/20 10:33:36;;;;;;;16.05;8.88;;;;;;;34.89;29.36;101703.91;5026825;28;20446;-70
2022/07/20 10:39:39;;;;;;;12.82;7.15;;;;;;;34.83;27.44;101699.78;5026761;28;20048;-70
2022/07/20 10:42:25;;;;;;;11.45;7.07;;;;;;;35.42;26.30;101710.50;5026636;28;20092;-69
2022/07/20 10:44:51;;;;;;;15.98;5.88;;;;;;;35.03;26.05;101725.75;5025046;28;20030;-69
2022/07/20 10:47:46;;;;;;;14.32;6.50;;;;;;;35.15;26.58;101714.41;5027494;28;20044;-70
2022/07/20 10:50:23;;;;;;;12.13;7.07;;;;;;;34.50;27.37;101711.47;5026473;28;20108;-70
2022/07/20 10:52:56;;;;;;;12.57;6.68;;;;;;;35.43;26.62;101714.94;5024920;28;20121;-70
2022/07/20 10:55:36;;;;;;;13.25;7.47;;;;;;;34.91;27.69;101695.94;5027364;28;20111;-68
2022/07/20 10:58:05;;;;;;;11.38;6.95;;;;;;;35.24;27.55;101701.03;5027741;28;20089;-70
2022/07/20 11:00:36;;;;;;;22.27;7.43;;;;;;;34.94;28.34;101692.44;5026901;28;20029;-68
2022/07/20 11:03:23;;;;;;;10.40;7.22;;;;;;;35.06;27.19;101692.31;5027457;28;20034;-69
2022/07/20 11:05:59;;;;;;;17.42;8.60;;;;;;;35.73;26.44;101696.31;5012763;28;20041;-67
2022/07/20 11:08:24;;;;;;;13.18;7.03;;;;;;;36.54;25.00;101708.75;5030215;28;20092;-69
2022/07/20 11:10:50;;;;;;;15.38;7.05;;;;;;;35.78;26.77;101715.56;5009748;28;20037;-68
2022/07/20 11:13:15;;;;;;;15.45;7.95;;;;;;;35.67;26.73;101705.41;5026968;28;20025;-69
2022/07/20 11:15:46;;;;;;;13.43;7.43;;;;;;;36.52;26.07;101722.31;5026894;28;20033;-67
2022/07/20 11:18:23;;;;;;;11.27;6.82;;;;;;;36.35;25.70;101736.06;5033321;28;20095;-68
2022/07/20 11:20:56;;;;;;;13.57;6.75;;;;;;;35.99;26.58;101743.94;5033341;28;20530;-67
2022/07/20 11:23:24;;;;;;;10.98;6.20;;;;;;;35.47;26.39;101754.19;5024955;28;20049;-67
2022/07/20 11:26:02;;;;;;;15.05;6.63;;;;;;;35.88;25.52;101745.72;5024923;28;20229;-67